Time;durP1;ratioP1;P1;durP2;ratioP2;P2;SDS_P1;SDS_P2;PMS_P1;PMS_P2;Temp;Humidity;BMP_temperature;BMP_pressure;BME280_temperature;BME280_humidity;BME280_pressure;Samples;Min_cycle;Max_cycle;Signal;HPM_P1;HPM_P2
2023/03/14 00:01:15;;;;;;;4.60;1.10;;;;;;;14.35;59.38;98741.25;6175100;22;97091;-50
2023/03/14 00:03:40;;;;;;;2.10;0.73;;;;;;;14.34;59.17;98739.81;6174381;22;96740;-51
2023/03/14 00:06:06;;;;;;;1.27;0.90;;;;;;;14.34;59.25;98750.88;6173934;22;96762;-51
2023/03/14 00:08:33;;;;;;;1.43;1.10;;;;;;;14.34;59.31;98744.59;6174349;22;96630;-50
2023/03/14 00:11:14;;;;;;;0.67;0.67;;;;;;;14.36;59.10;98733.72;6174651;22;96665;-51
2023/03/14 00:13:39;;;;;;;1.20;1.03;;;;;;;14.33;59.19;98737.63;6174687;22;96805;-51
2023/03/14 00:16:07;;;;;;;2.30;0.80;;;;;;;14.32;59.16;98722.31;6174295;22;96703;-51
2023/03/14 00:18:34;;;;;;;1.07;0.97;;;;;;;14.31;59.11;98699.44;6173085;22;96786;-50
2023/03/14 00:21:00;;;;;;;1.87;1.17;;;;;;;14.32;59.11;98687.09;6173952;22;96747;-50
2023/03/14 00:23:28;;;;;;;1.23;1.10;;;;;;;14.32;58.87;98698.16;6174431;22;97016;-51
2023/03/14 00:25:53;;;;;;;1.20;1.00;;;;;;;14.27;59.05;98691.53;6146575;22;97698;-51
2023/03/14 00:28:18;;;;;;;1.10;0.90;;;;;;;14.25;59.08;98687.84;6174417;22;97112;-50
2023/03/14 00:30:44;;;;;;;1.67;1.13;;;;;;;14.20;59.01;98681.25;6174675;22;96981;-51
2023/03/14 00:33:09;;;;;;;3.13;0.90;;;;;;;14.22;59.20;98694.50;6175327;22;97078;-51
2023/03/14 00:35:34;;;;;;;5.47;1.00;;;;;;;14.21;59.07;98704.13;6173664;22;97087;-50
2023/03/14 00:38:00;;;;;;;0.93;0.93;;;;;;;14.16;59.09;98711.34;6174447;22;97971;-51
2023/03/14 00:40:25;;;;;;;1.83;0.97;;;;;;;14.13;59.12;98726.28;6174602;22;97138;-51
2023/03/14 00:42:50;;;;;;;1.97;0.93;;;;;;;14.13;59.22;98725.56;6174788;22;97254;-51
2023/03/14 00:45:16;;;;;;;1.13;0.90;;;;;;;14.12;59.11;98732.38;6172763;22;99514;-50
2023/03/14 00:47:45;;;;;;;1.27;0.90;;;;;;;14.11;59.02;98728.13;6173605;22;97224;-51
2023/03/14 00:50:11;;;;;;;1.87;0.67;;;;;;;14.04;59.33;98728.94;6174291;22;97238;-51
2023/03/14 00:52:36;;;;;;;1.37;0.90;;;;;;;14.03;59.28;98749.56;6174187;22;97031;-50
2023/03/14 00:55:02;;;;;;;1.47;0.87;;;;;;;14.04;59.24;98737.22;6174279;22;97306;-51
2023/03/14 00:57:27;;;;;;;1.60;1.13;;;;;;;14.07;59.36;98736.09;6174230;22;97579;-51
2023/03/14 00:59:52;;;;;;;3.87;0.80;;;;;;;14.10;59.12;98732.22;6173494;22;96930;-51
2023/03/14 01:02:18;;;;;;;1.37;1.10;;;;;;;14.14;59.21;98730.53;6174991;22;97150;-51
2023/03/14 01:04:43;;;;;;;0.70;0.70;;;;;;;14.15;59.24;98725.72;6174082;22;97119;-50
2023/03/14 01:07:08;;;;;;;2.60;0.77;;;;;;;14.14;59.07;98713.19;6173924;22;97089;-50
2023/03/14 01:09:34;;;;;;;2.73;0.80;;;;;;;14.13;59.00;98720.75;6173439;22;97043;-51
2023/03/14 01:11:59;;;;;;;1.47;0.77;;;;;;;14.14;59.10;98708.41;6174609;22;97023;-51
2023/03/14 01:14:24;;;;;;;1.60;0.80;;;;;;;14.16;58.96;98699.53;6173984;22;96660;-51
2023/03/14 01:16:50;;;;;;;3.20;1.00;;;;;;;14.16;59.12;98694.00;6173813;22;96592;-51
2023/03/14 01:19:15;;;;;;;1.20;0.80;;;;;;;14.14;58.96;98689.03;6174695;22;97895;-50
2023/03/14 01:21:41;;;;;;;2.03;0.80;;;;;;;14.14;58.84;98694.56;6174443;22;97132;-51
2023/03/14 01:24:06;;;;;;;1.20;0.83;;;;;;;14.18;59.14;98699.69;6174195;22;97144;-51
2023/03/14 01:26:34;;;;;;;3.17;0.97;;;;;;;14.21;58.95;98693.78;6174662;22;96647;-51
2023/03/14 01:28:59;;;;;;;5.87;1.03;;;;;;;14.24;59.00;98694.69;6174162;22;96796;-51
2023/03/14 01:31:26;;;;;;;1.93;1.33;;;;;;;14.31;58.83;98676.59;6174407;22;97176;-51
2023/03/14 01:33:52;;;;;;;1.37;0.90;;;;;;;14.35;58.87;98668.63;6173320;22;97351;-51
2023/03/14 01:36:17;;;;;;;2.53;1.30;;;;;;;14.38;58.72;98671.00;6174500;22;97192;-50
2023/03/14 01:38:43;;;;;;;1.50;1.20;;;;;;;14.40;58.77;98675.94;6174026;22;96530;-51
2023/03/14 01:41:14;;;;;;;1.20;0.60;;;;;;;14.45;58.67;98677.75;6174566;22;96820;-50
2023/03/14 01:43:40;;;;;;;1.43;0.83;;;;;;;14.47;58.73;98659.28;6173949;22;97246;-51
2023/03/14 01:46:05;;;;;;;2.80;1.00;;;;;;;14.53;58.75;98661.81;6174206;22;97240;-51
2023/03/14 01:49:04;;;;;;;1.50;0.77;;;;;;;14.57;58.65;98667.72;6173648;22;96926;-50
2023/03/14 01:51:37;;;;;;;5.23;0.80;;;;;;;14.57;58.53;98685.03;6174182;22;96756;-51
2023/03/14 01:54:43;;;;;;;2.20;0.70;;;;;;;14.58;58.54;98672.66;6174917;22;97090;-51
2023/03/14 01:57:28;;;;;;;3.80;0.70;;;;;;;14.57;58.55;98646.28;6174228;22;97242;-51
2023/03/14 02:00:14;;;;;;;1.37;0.80;;;;;;;14.57;58.19;98623.44;6173350;22;96564;-50
2023/03/14 02:02:43;;;;;;;3.90;1.23;;;;;;;14.56;58.50;98606.09;6174480;22;97134;-51
2023/03/14 02:05:09;;;;;;;5.13;0.80;;;;;;;14.57;58.73;98612.38;6171957;22;96668;-50
2023/03/14 02:07:49;;;;;;;1.10;0.70;;;;;;;14.57;58.59;98618.63;6172552;22;96979;-50
2023/03/14 02:10:18;;;;;;;1.70;1.07;;;;;;;14.56;58.66;98614.41;6174132;22;96925;-51
2023/03/14 02:12:45;;;;;;;1.80;0.70;;;;;;;14.55;58.60;98615.69;6173854;22;97078;-51
2023/03/14 02:15:10;;;;;;;1.53;0.70;;;;;;;14.53;58.65;98626.59;6173994;22;97311;-51
2023/03/14 02:17:36;;;;;;;1.50;0.90;;;;;;;14.51;58.57;98640.25;6173669;22;97081;-51
2023/03/14 02:20:08;;;;;;;1.50;0.90;;;;;;;14.50;58.62;98649.88;6173273;22;97025;-51
2023/03/14 02:22:36;;;;;;;2.20;0.70;;;;;;;14.52;58.78;98657.59;6174259;22;96742;-51
2023/03/14 02:25:08;;;;;;;1.57;0.77;;;;;;;14.55;58.60;98659.22;6146088;22;99339;-51
2023/03/14 02:27:34;;;;;;;2.40;0.80;;;;;;;14.53;58.70;98659.78;6173395;22;97191;-51
2023/03/14 02:30:04;;;;;;;1.43;0.60;;;;;;;14.56;58.63;98661.44;6171776;22;96500;-51
2023/03/14 02:32:33;;;;;;;2.10;0.87;;;;;;;14.59;58.72;98656.81;6173511;22;97083;-51
2023/03/14 02:35:02;;;;;;;0.80;0.67;;;;;;;14.59;58.71;98659.56;6146300;22;97235;-50
2023/03/14 02:37:40;;;;;;;1.13;1.03;;;;;;;14.62;58.43;98653.63;6173235;22;96959;-50
2023/03/14 02:40:07;;;;;;;1.17;0.77;;;;;;;14.63;58.70;98663.41;6173818;22;96997;-51
2023/03/14 02:42:32;;;;;;;0.87;0.70;;;;;;;14.63;58.52;98646.78;6175058;22;97372;-51
2023/03/14 02:45:17;;;;;;;2.43;0.90;;;;;;;14.64;58.26;98647.50;6173870;22;96677;-51
2023/03/14 02:47:47;;;;;;;1.63;0.97;;;;;;;14.64;58.53;98634.41;6172207;22;96768;-51
2023/03/14 02:50:17;;;;;;;1.20;0.80;;;;;;;14.68;58.54;98626.44;6173064;22;96562;-51
2023/03/14 02:52:42;;;;;;;2.60;0.83;;;;;;;14.71;58.53;98622.53;6173880;22;97010;-51
2023/03/14 02:55:08;;;;;;;2.57;0.90;;;;;;;14.67;58.36;98616.69;6173725;22;97361;-50
2023/03/14 02:57:33;;;;;;;3.33;0.63;;;;;;;14.67;58.37;98627.75;6173060;22;97095;-50
2023/03/14 03:00:00;;;;;;;3.00;1.10;;;;;;;14.68;58.34;98618.13;6173535;22;96788;-51
2023/03/14 03:02:26;;;;;;;1.43;0.73;;;;;;;14.70;58.46;98615.53;6173746;22;97284;-51
2023/03/14 03:04:52;;;;;;;2.40;1.07;;;;;;;14.70;58.44;98626.59;6173396;22;97082;-51
2023/03/14 03:07:17;;;;;;;5.07;0.87;;;;;;;14.70;58.39;98634.91;6173187;22;96562;-51
2023/03/14 03:09:42;;;;;;;1.27;0.90;;;;;;;14.70;58.43;98615.53;6173300;22;96699;-50
2023/03/14 03:12:08;;;;;;;1.50;0.80;;;;;;;14.71;58.31;98621.78;6173651;22;97032;-51
2023/03/14 03:14:33;;;;;;;1.03;0.70;;;;;;;14.65;58.20;98610.97;6172387;22;97864;-50
2023/03/14 03:16:58;;;;;;;1.20;1.10;;;;;;;14.65;58.40;98616.50;6173388;22;96905;-50
2023/03/14 03:19:24;;;;;;;1.40;0.80;;;;;;;14.65;58.46;98610.25;6174136;22;96741;-51
2023/03/14 03:21:49;;;;;;;1.67;0.77;;;;;;;14.67;58.33;98602.09;6175399;22;97045;-51
2023/03/14 03:24:15;;;;;;;3.63;1.00;;;;;;;14.66;58.27;98601.34;6174905;22;96979;-51
2023/03/14 03:26:40;;;;;;;2.47;0.63;;;;;;;14.67;58.42;98593.78;6174448;22;96651;-51
2023/03/14 03:29:05;;;;;;;2.20;1.40;;;;;;;14.68;58.23;98593.22;6174837;22;97119;-50
2023/03/14 03:31:30;;;;;;;2.47;0.77;;;;;;;14.68;58.25;98586.94;6175648;22;97154;-51
2023/03/14 03:33:57;;;;;;;1.80;0.87;;;;;;;14.66;58.30;98587.53;6174414;22;97145;-51
2023/03/14 03:36:26;;;;;;;2.80;0.90;;;;;;;14.65;57.89;98591.59;6174552;22;97088;-50
2023/03/14 03:38:51;;;;;;;0.83;0.60;;;;;;;14.67;58.23;98582.72;6173596;22;97573;-50
2023/03/14 03:41:17;;;;;;;0.97;0.50;;;;;;;14.67;58.15;98574.44;6175023;22;97013;-50
2023/03/14 03:43:42;;;;;;;2.20;1.00;;;;;;;14.68;58.28;98571.09;6174039;22;97423;-51
2023/03/14 03:46:08;;;;;;;5.30;1.27;;;;;;;14.73;58.05;98564.56;6173883;22;97233;-51
2023/03/14 03:48:35;;;;;;;1.83;0.70;;;;;;;14.74;58.02;98560.47;6174548;22;96853;-51
2023/03/14 03:51:00;;;;;;;5.00;1.13;;;;;;;14.75;58.00;98559.19;6175285;22;97010;-51
2023/03/14 03:53:26;;;;;;;0.60;0.60;;;;;;;14.73;58.01;98553.50;6174443;22;97295;-50
2023/03/14 03:55:52;;;;;;;0.60;0.60;;;;;;;14.73;58.00;98550.72;6175062;22;96645;-51
2023/03/14 03:58:17;;;;;;;2.10;0.90;;;;;;;14.75;57.98;98555.69;6174420;22;97158;-51
2023/03/14 04:00:43;;;;;;;2.87;0.73;;;;;;;14.74;57.84;98563.25;6174842;22;97209;-51
2023/03/14 04:03:08;;;;;;;0.90;0.70;;;;;;;14.72;58.14;98571.41;6173841;22;96720;-51
2023/03/14 04:05:34;;;;;;;2.10;0.77;;;;;;;14.67;58.23;98582.72;6174253;22;97137;-50
2023/03/14 04:08:00;;;;;;;2.93;0.50;;;;;;;14.62;58.28;98587.22;6174582;22;97335;-51
2023/03/14 04:10:26;;;;;;;1.67;0.60;;;;;;;14.52;58.52;98607.78;6174468;22;97216;-50
2023/03/14 04:12:52;;;;;;;4.30;0.50;;;;;;;14.38;58.67;98595.56;6174820;22;96982;-51
2023/03/14 04:15:17;;;;;;;1.10;0.70;;;;;;;14.20;59.33;98592.75;6174538;22;96920;-51
2023/03/14 04:17:43;;;;;;;1.47;0.60;;;;;;;14.09;59.62;98587.69;6174098;22;97029;-51
2023/03/14 04:20:12;;;;;;;1.17;0.60;;;;;;;14.03;59.57;98600.28;6175484;22;96682;-51
2023/03/14 04:22:38;;;;;;;2.53;0.70;;;;;;;13.95;59.66;98588.56;6173626;22;97505;-51
2023/03/14 04:25:05;;;;;;;0.93;0.40;;;;;;;13.88;59.89;98592.09;6171382;22;97552;-49
2023/03/14 04:27:31;;;;;;;0.70;0.70;;;;;;;13.85;59.87;98598.75;6173666;22;96911;-51
2023/03/14 04:29:56;;;;;;;0.90;0.60;;;;;;;13.73;60.05;98601.25;6174014;22;96889;-50
2023/03/14 04:32:22;;;;;;;0.83;0.40;;;;;;;13.67;60.04;98600.00;6174133;22;97238;-51
2023/03/14 04:34:47;;;;;;;1.80;0.50;;;;;;;13.58;60.05;98601.34;6174321;22;97372;-50
2023/03/14 04:37:13;;;;;;;0.80;0.60;;;;;;;13.53;59.98;98594.75;6174485;22;97064;-50
2023/03/14 04:39:38;;;;;;;1.67;0.40;;;;;;;13.49;60.07;98580.59;6174474;22;97215;-51
2023/03/14 04:42:03;;;;;;;1.43;0.50;;;;;;;13.44;59.98;98580.81;6174783;22;96897;-51
2023/03/14 04:44:29;;;;;;;1.00;0.40;;;;;;;13.41;60.05;98582.66;6174720;22;97175;-51
2023/03/14 04:46:54;;;;;;;1.13;0.40;;;;;;;13.36;59.89;98580.88;6174559;22;96877;-51
2023/03/14 04:49:20;;;;;;;0.90;0.30;;;;;;;13.33;59.98;98589.53;6146131;22;96898;-51
2023/03/14 04:51:45;;;;;;;1.20;0.50;;;;;;;13.27;60.04;98578.72;6173516;22;97167;-51
2023/03/14 04:54:10;;;;;;;0.60;0.57;;;;;;;13.22;60.08;98581.66;6174282;22;96645;-51
2023/03/14 04:56:36;;;;;;;0.67;0.40;;;;;;;13.22;60.04;98576.88;6172757;22;97006;-49
2023/03/14 04:59:02;;;;;;;0.50;0.40;;;;;;;13.18;59.92;98571.03;6173297;22;97163;-51
2023/03/14 05:01:27;;;;;;;2.47;0.70;;;;;;;13.12;59.95;98565.00;6173360;22;97841;-50
2023/03/14 05:03:53;;;;;;;1.17;0.60;;;;;;;13.08;59.99;98553.59;6173678;22;97089;-49
2023/03/14 05:06:18;;;;;;;2.20;0.50;;;;;;;13.04;60.02;98550.44;6174124;22;96790;-51
2023/03/14 05:08:44;;;;;;;1.83;0.40;;;;;;;13.02;60.01;98558.56;6172119;22;97193;-51
2023/03/14 05:11:10;;;;;;;1.77;0.50;;;;;;;13.02;60.01;98544.75;6174329;22;97706;-51
2023/03/14 05:13:36;;;;;;;1.43;0.50;;;;;;;13.01;60.11;98545.31;6173928;22;97742;-50
2023/03/14 05:16:09;;;;;;;0.70;0.40;;;;;;;12.97;59.97;98537.44;6173421;22;97288;-51
2023/03/14 05:18:35;;;;;;;0.93;0.50;;;;;;;12.93;60.22;98539.81;6172895;22;96611;-50
2023/03/14 05:21:00;;;;;;;0.50;0.40;;;;;;;12.91;60.25;98534.13;6172718;22;96999;-51
2023/03/14 05:23:26;;;;;;;1.53;0.50;;;;;;;12.89;60.16;98539.47;6174622;22;97816;-51
2023/03/14 05:25:51;;;;;;;1.60;0.50;;;;;;;12.90;60.06;98535.44;6174447;22;96971;-51
2023/03/14 05:28:17;;;;;;;0.60;0.40;;;;;;;12.87;60.13;98533.06;6173978;22;97200;-50
2023/03/14 05:30:42;;;;;;;0.50;0.40;;;;;;;12.85;60.30;98532.88;6173920;22;96930;-51
2023/03/14 05:33:07;;;;;;;1.20;0.43;;;;;;;12.81;60.16;98538.78;6173765;22;96610;-50
2023/03/14 05:35:33;;;;;;;0.90;0.40;;;;;;;12.79;60.42;98522.81;6173963;22;97548;-51
2023/03/14 05:37:58;;;;;;;0.70;0.50;;;;;;;12.78;60.16;98528.88;6147349;22;97586;-50
2023/03/14 05:40:24;;;;;;;0.60;0.33;;;;;;;12.73;60.33;98538.09;6173235;22;97531;-50
2023/03/14 05:42:49;;;;;;;1.03;0.57;;;;;;;12.70;60.55;98539.22;6173873;22;97095;-50
2023/03/14 05:45:14;;;;;;;0.60;0.40;;;;;;;12.67;60.38;98549.31;6174967;22;97234;-51
2023/03/14 05:47:40;;;;;;;2.60;0.60;;;;;;;12.69;60.38;98543.25;6174019;22;96733;-51
2023/03/14 05:50:05;;;;;;;0.87;0.50;;;;;;;12.67;60.42;98546.56;6173585;22;97139;-51
2023/03/14 05:52:31;;;;;;;1.20;0.40;;;;;;;12.65;60.49;98545.66;6173826;22;97761;-51
2023/03/14 05:54:57;;;;;;;3.20;0.60;;;;;;;12.65;60.48;98540.13;6174865;22;97139;-51
2023/03/14 05:57:22;;;;;;;0.63;0.40;;;;;;;12.66;60.38;98545.13;6175191;22;97344;-50
2023/03/14 05:59:47;;;;;;;0.73;0.50;;;;;;;12.63;60.56;98551.00;6173159;22;97197;-51
2023/03/14 06:02:13;;;;;;;3.50;0.60;;;;;;;12.62;60.41;98544.75;6174022;22;97134;-51
2023/03/14 06:04:38;;;;;;;2.40;0.80;;;;;;;12.59;60.48;98539.63;6146995;22;97046;-51
2023/03/14 06:07:03;;;;;;;1.27;0.60;;;;;;;12.61;60.57;98548.81;6173985;22;97069;-50
2023/03/14 06:09:29;;;;;;;0.80;0.80;;;;;;;12.61;60.69;98546.03;6173373;22;96925;-50
2023/03/14 06:11:54;;;;;;;1.80;1.00;;;;;;;12.66;60.71;98549.88;6174543;22;96944;-51
2023/03/14 06:14:20;;;;;;;5.70;0.60;;;;;;;12.69;60.73;98552.25;6174816;22;96917;-51
2023/03/14 06:16:45;;;;;;;1.23;0.60;;;;;;;12.74;60.86;98556.09;6146974;22;96554;-50
2023/03/14 06:19:11;;;;;;;0.90;0.80;;;;;;;12.82;60.49;98551.28;6173010;22;98333;-51
2023/03/14 06:21:37;;;;;;;3.90;1.27;;;;;;;12.85;60.49;98552.94;6174320;22;96589;-51
2023/03/14 06:24:03;;;;;;;2.70;0.70;;;;;;;12.88;60.62;98553.84;6174310;22;96575;-51
2023/03/14 06:26:28;;;;;;;1.80;0.70;;;;;;;12.91;60.73;98553.44;6174079;22;96561;-50
2023/03/14 06:28:54;;;;;;;1.03;0.90;;;;;;;12.96;60.56;98569.09;6172696;22;96539;-51
2023/03/14 06:31:19;;;;;;;1.30;0.80;;;;;;;12.97;60.83;98561.53;6174092;22;97497;-51
2023/03/14 06:33:45;;;;;;;1.20;0.60;;;;;;;13.04;60.50;98560.78;6174076;22;96698;-51
2023/03/14 06:36:10;;;;;;;1.27;1.00;;;;;;;13.09;60.60;98566.09;6174610;22;97077;-50
2023/03/14 06:38:35;;;;;;;1.83;0.80;;;;;;;13.11;60.64;98566.28;6172770;22;96631;-50
2023/03/14 06:41:05;;;;;;;1.57;0.60;;;;;;;13.14;60.58;98570.69;6174227;22;97661;-51
2023/03/14 06:43:31;;;;;;;2.40;0.80;;;;;;;13.21;60.39;98563.66;6174216;22;96503;-50
2023/03/14 06:45:56;;;;;;;2.93;0.93;;;;;;;13.23;60.49;98566.59;6175049;22;97110;-50
2023/03/14 06:48:21;;;;;;;4.43;1.33;;;;;;;13.27;60.33;98572.44;6172746;22;109916;-49
2023/03/14 06:50:48;;;;;;;1.83;0.83;;;;;;;13.26;60.44;98565.44;6173134;22;96672;-51
2023/03/14 06:53:13;;;;;;;2.33;1.03;;;;;;;13.29;60.56;98565.06;6174061;22;96508;-50
2023/03/14 06:55:38;;;;;;;2.80;1.20;;;;;;;13.33;60.42;98567.44;6174763;22;97066;-51
2023/03/14 06:58:04;;;;;;;2.90;0.90;;;;;;;13.37;60.45;98574.03;6175055;22;96841;-50
2023/03/14 07:00:30;;;;;;;0.70;0.60;;;;;;;13.40;60.33;98569.41;6174776;22;97052;-51
2023/03/14 07:02:55;;;;;;;1.47;0.73;;;;;;;13.41;60.42;98585.44;6175144;22;97077;-50
2023/03/14 07:05:20;;;;;;;1.00;0.63;;;;;;;13.41;60.28;98571.63;6175132;22;97047;-51
2023/03/14 07:07:46;;;;;;;1.33;0.97;;;;;;;13.46;60.28;98587.25;6174253;22;97871;-51
2023/03/14 07:10:11;;;;;;;1.73;0.73;;;;;;;13.52;60.21;98593.28;6174753;22;97415;-51
2023/03/14 07:12:36;;;;;;;2.20;1.13;;;;;;;13.56;60.10;98592.16;6174727;22;96655;-50
2023/03/14 07:15:02;;;;;;;2.20;0.70;;;;;;;13.54;60.23;98585.16;6175428;22;96726;-51
2023/03/14 07:17:27;;;;;;;3.70;0.90;;;;;;;13.59;60.11;98591.03;6173630;22;97643;-51
2023/03/14 07:19:53;;;;;;;2.13;0.70;;;;;;;13.60;60.03;98593.25;6174174;22;96593;-50
2023/03/14 07:22:18;;;;;;;6.30;1.00;;;;;;;13.62;59.87;98587.13;6175511;22;96584;-50
2023/03/14 07:24:43;;;;;;;1.70;0.47;;;;;;;13.58;60.05;98581.28;6174896;22;97132;-51
2023/03/14 07:27:09;;;;;;;0.77;0.47;;;;;;;13.53;60.08;98583.72;6174730;22;97225;-51
2023/03/14 07:29:34;;;;;;;0.67;0.50;;;;;;;13.55;60.02;98599.72;6174866;22;97284;-51
2023/03/14 07:31:59;;;;;;;0.70;0.50;;;;;;;13.62;59.99;98590.66;6175251;22;96923;-51
2023/03/14 07:34:25;;;;;;;2.47;0.60;;;;;;;13.71;59.90;98589.28;6174958;22;96743;-51
2023/03/14 07:36:50;;;;;;;3.83;0.50;;;;;;;13.77;59.71;98582.25;6173631;22;108655;-51
2023/03/14 07:39:15;;;;;;;1.10;0.70;;;;;;;13.76;59.58;98583.53;6174157;22;97018;-51
2023/03/14 07:41:41;;;;;;;0.60;0.40;;;;;;;13.81;59.66;98584.59;6174482;22;96795;-50
2023/03/14 07:44:06;;;;;;;1.83;0.43;;;;;;;13.83;59.65;98587.53;6174919;22;96527;-51
2023/03/14 07:46:31;;;;;;;3.63;0.63;;;;;;;13.85;59.29;98605.03;6174516;22;96861;-51
2023/03/14 07:48:57;;;;;;;0.90;0.50;;;;;;;13.88;59.34;98589.34;6174198;22;96805;-51
2023/03/14 07:51:22;;;;;;;5.03;0.60;;;;;;;13.87;59.39;98590.66;6174264;22;96553;-50
2023/03/14 07:53:48;;;;;;;1.10;0.50;;;;;;;13.94;59.53;98585.06;6174946;22;96818;-51
2023/03/14 07:56:13;;;;;;;1.27;0.40;;;;;;;14.03;59.40;98592.72;6174569;22;96775;-51
2023/03/14 07:58:38;;;;;;;0.90;0.47;;;;;;;14.06;58.89;98593.63;6173846;22;97711;-50
2023/03/14 08:01:04;;;;;;;1.17;0.47;;;;;;;14.07;59.09;98592.31;6175002;22;96929;-51
2023/03/14 08:03:29;;;;;;;1.17;0.40;;;;;;;14.09;59.04;98589.72;6174901;22;96892;-50
2023/03/14 08:05:54;;;;;;;1.43;0.50;;;;;;;14.13;58.97;98593.53;6172040;22;98736;-50
2023/03/14 08:08:20;;;;;;;1.40;0.40;;;;;;;14.19;58.70;98588.53;6174477;22;96964;-51
2023/03/14 08:10:46;;;;;;;0.90;0.50;;;;;;;14.26;58.92;98595.31;6173704;22;97043;-51
2023/03/14 08:13:12;;;;;;;0.50;0.37;;;;;;;14.24;58.71;98586.84;6174573;22;97043;-51
2023/03/14 08:15:38;;;;;;;0.80;0.40;;;;;;;14.23;58.65;98580.56;6174301;22;97019;-51
2023/03/14 08:18:04;;;;;;;0.50;0.30;;;;;;;14.29;58.69;98588.66;6173603;22;96998;-51
2023/03/14 08:20:29;;;;;;;0.90;0.40;;;;;;;14.30;58.37;98581.09;6174498;22;96820;-50
2023/03/14 08:23:00;;;;;;;0.97;0.30;;;;;;;14.27;58.09;98586.44;6174322;22;97313;-50
2023/03/14 08:25:26;;;;;;;0.87;0.43;;;;;;;14.32;58.54;98590.28;6174418;22;96891;-50
2023/03/14 08:27:52;;;;;;;0.60;0.33;;;;;;;14.34;58.30;98568.31;6173673;22;97085;-50
2023/03/14 08:30:19;;;;;;;1.50;0.40;;;;;;;14.41;58.58;98589.66;6173765;22;96615;-51
2023/03/14 08:32:44;;;;;;;0.73;0.40;;;;;;;14.56;58.37;98591.53;6174529;22;97028;-51
2023/03/14 08:35:10;;;;;;;1.00;0.40;;;;;;;14.64;57.96;98589.41;6174268;22;97044;-51
2023/03/14 08:37:36;;;;;;;0.60;0.47;;;;;;;14.73;58.19;98591.50;6173416;22;97179;-49
2023/03/14 08:40:06;;;;;;;2.63;0.47;;;;;;;14.72;57.76;98585.25;6174539;22;96939;-51
2023/03/14 08:42:33;;;;;;;1.73;0.60;;;;;;;14.75;57.88;98584.09;6175039;22;98337;-51
2023/03/14 08:44:58;;;;;;;1.90;0.30;;;;;;;14.75;57.71;98589.63;6174016;22;97058;-50
2023/03/14 08:47:24;;;;;;;0.80;0.40;;;;;;;14.75;57.58;98578.56;6174546;22;96995;-51
2023/03/14 08:49:49;;;;;;;0.40;0.30;;;;;;;14.73;57.83;98572.88;6174089;22;96597;-51
2023/03/14 08:52:16;;;;;;;0.50;0.30;;;;;;;14.75;57.80;98577.84;6174598;22;96857;-51
2023/03/14 08:54:43;;;;;;;0.60;0.30;;;;;;;14.82;57.60;98577.03;6173582;22;97058;-51
2023/03/14 08:57:08;;;;;;;0.50;0.30;;;;;;;14.82;57.80;98588.84;6174112;22;96915;-51
2023/03/14 08:59:33;;;;;;;0.90;0.50;;;;;;;14.79;57.92;98589.97;6174304;22;96976;-51
2023/03/14 09:01:59;;;;;;;0.50;0.40;;;;;;;14.77;57.93;98583.53;6174599;22;96967;-50
2023/03/14 09:04:24;;;;;;;0.47;0.33;;;;;;;14.76;57.95;98591.13;6174154;22;97552;-51
2023/03/14 09:06:49;;;;;;;1.73;0.50;;;;;;;14.80;58.12;98590.69;6173834;22;97303;-51
2023/03/14 09:09:15;;;;;;;0.50;0.40;;;;;;;14.96;58.13;98597.53;6174517;22;96875;-50
2023/03/14 09:11:40;;;;;;;1.63;0.47;;;;;;;14.99;57.98;98601.91;6174963;22;96991;-51
2023/03/14 09:14:06;;;;;;;0.50;0.30;;;;;;;14.96;57.97;98608.59;6174279;22;97250;-50
2023/03/14 09:16:33;;;;;;;0.60;0.40;;;;;;;14.92;58.17;98609.00;6173736;22;98406;-50
2023/03/14 09:18:59;;;;;;;0.50;0.30;;;;;;;14.96;58.19;98622.44;6173202;22;96623;-51
2023/03/14 09:21:25;;;;;;;0.80;0.30;;;;;;;14.91;58.03;98602.00;6174773;22;96599;-51
2023/03/14 09:23:51;;;;;;;1.10;0.30;;;;;;;14.86;58.33;98616.81;6173373;22;97865;-50
2023/03/14 09:26:16;;;;;;;0.50;0.30;;;;;;;14.82;58.48;98610.97;6173985;22;97264;-51
2023/03/14 09:28:41;;;;;;;0.40;0.30;;;;;;;14.80;58.63;98613.59;6174350;22;97011;-51
2023/03/14 09:31:09;;;;;;;2.97;0.60;;;;;;;14.72;58.65;98628.81;6174259;22;97143;-51
2023/03/14 09:33:35;;;;;;;1.53;0.60;;;;;;;14.67;58.69;98624.97;6172510;22;96562;-51
2023/03/14 09:36:00;;;;;;;0.70;0.40;;;;;;;14.73;58.96;98621.97;6174540;22;97108;-51
2023/03/14 09:38:26;;;;;;;1.10;0.47;;;;;;;14.81;59.01;98614.28;6173947;22;97076;-50
2023/03/14 09:40:53;;;;;;;0.50;0.40;;;;;;;14.90;58.90;98613.63;6174166;22;97002;-51
2023/03/14 09:43:21;;;;;;;1.53;0.93;;;;;;;14.90;58.87;98616.41;6173341;22;96639;-50
2023/03/14 09:45:48;;;;;;;1.10;0.50;;;;;;;14.97;58.82;98613.56;6173582;22;97087;-50
2023/03/14 09:48:21;;;;;;;0.80;0.60;;;;;;;14.92;58.88;98622.84;6174093;22;97181;-50
2023/03/14 09:50:50;;;;;;;0.50;0.50;;;;;;;14.91;58.97;98612.34;6173819;22;96763;-50
2023/03/14 09:53:21;;;;;;;0.60;0.40;;;;;;;14.98;59.16;98609.47;6173840;22;97102;-50
2023/03/14 09:55:49;;;;;;;0.63;0.60;;;;;;;15.14;59.01;98606.53;6173970;22;97349;-51
2023/03/14 09:58:20;;;;;;;1.00;0.60;;;;;;;15.26;58.98;98605.47;6173993;22;96530;-51
2023/03/14 10:00:46;;;;;;;2.50;0.47;;;;;;;15.30;58.79;98607.81;6174235;22;96952;-50
2023/03/14 10:03:12;;;;;;;0.60;0.50;;;;;;;15.34;58.75;98606.06;6173549;22;96723;-51
2023/03/14 10:05:37;;;;;;;0.50;0.50;;;;;;;15.38;58.64;98597.34;6173331;22;97121;-51
2023/03/14 10:08:04;;;;;;;0.80;0.50;;;;;;;15.44;58.63;98604.09;6172888;22;96738;-50
2023/03/14 10:10:30;;;;;;;2.33;0.60;;;;;;;15.45;58.57;98600.03;6174220;22;96967;-51
2023/03/14 10:12:58;;;;;;;1.40;0.53;;;;;;;15.50;58.46;98609.41;6173616;22;97753;-51
2023/03/14 10:15:34;;;;;;;1.70;0.50;;;;;;;15.49;58.50;98602.38;6174177;22;97468;-51
2023/03/14 10:18:01;;;;;;;0.60;0.57;;;;;;;15.59;58.60;98595.59;6174478;22;96881;-51
2023/03/14 10:20:45;;;;;;;0.60;0.60;;;;;;;15.62;58.32;98599.25;6174206;22;96822;-51
2023/03/14 10:23:13;;;;;;;0.60;0.60;;;;;;;15.66;58.41;98602.34;6173746;22;97002;-50
2023/03/14 10:25:44;;;;;;;0.70;0.70;;;;;;;15.76;58.30;98597.56;6174401;22;97157;-51
2023/03/14 10:28:30;;;;;;;0.70;0.60;;;;;;;15.82;57.21;98600.78;6173057;22;96986;-51
2023/03/14 10:30:57;;;;;;;0.60;0.60;;;;;;;15.79;58.02;98613.06;6174246;22;97447;-50
2023/03/14 10:33:24;;;;;;;0.53;0.53;;;;;;;15.68;58.07;98619.13;6173103;22;97080;-50
2023/03/14 10:36:16;;;;;;;0.60;0.60;;;;;;;15.67;58.07;98634.28;6173246;22;97127;-50
2023/03/14 10:38:41;;;;;;;0.97;0.73;;;;;;;15.62;58.44;98613.09;6155822;22;96809;-50
2023/03/14 10:41:26;;;;;;;0.90;0.80;;;;;;;15.50;58.69;98610.16;6173406;22;96942;-50
2023/03/14 10:43:58;;;;;;;0.67;0.67;;;;;;;15.38;59.04;98609.16;6173182;22;97386;-50
2023/03/14 10:46:25;;;;;;;0.80;0.80;;;;;;;15.33;59.06;98609.44;6173531;22;97341;-50
2023/03/14 10:48:51;;;;;;;0.77;0.70;;;;;;;15.21;59.10;98609.22;6173389;22;97253;-51
2023/03/14 10:51:16;;;;;;;1.07;0.60;;;;;;;15.08;59.53;98615.09;6174762;22;96830;-50
2023/03/14 10:53:44;;;;;;;1.17;0.90;;;;;;;14.93;59.81;98621.56;6172808;22;96561;-50
2023/03/14 10:56:17;;;;;;;0.77;0.77;;;;;;;14.86;60.09;98669.44;6173317;22;97066;-51
2023/03/14 10:58:49;;;;;;;1.07;0.70;;;;;;;14.65;59.91;98709.88;6172606;22;96926;-51
2023/03/14 11:01:25;;;;;;;1.37;0.60;;;;;;;14.15;59.96;98712.63;6174406;22;96981;-51
2023/03/14 11:04:02;;;;;;;0.73;0.40;;;;;;;13.62;59.58;98722.53;6173198;22;98920;-51
2023/03/14 11:06:41;;;;;;;0.77;0.40;;;;;;;13.30;60.36;98737.72;6173230;22;96949;-52
2023/03/14 11:09:29;;;;;;;0.40;0.30;;;;;;;13.17;60.48;98742.75;6173395;22;96705;-52
2023/03/14 11:12:01;;;;;;;1.00;0.30;;;;;;;13.06;60.40;98749.38;6143558;22;96642;-52
2023/03/14 11:14:36;;;;;;;0.80;0.40;;;;;;;12.78;59.96;98755.84;6142963;22;96757;-52
2023/03/14 11:17:01;;;;;;;0.50;0.33;;;;;;;12.48;60.50;98766.16;6143302;22;97716;-52
2023/03/14 11:19:45;;;;;;;0.63;0.40;;;;;;;12.21;61.03;98784.31;6142687;22;96890;-53
2023/03/14 11:22:23;;;;;;;2.00;0.40;;;;;;;12.12;61.76;98795.88;6143653;22;96619;-52
2023/03/14 11:25:13;;;;;;;0.97;0.30;;;;;;;12.18;61.64;98804.72;6142089;22;97649;-52
2023/03/14 11:27:44;;;;;;;0.50;0.40;;;;;;;12.08;60.98;98834.09;6142075;22;96776;-52
2023/03/14 11:30:37;;;;;;;1.03;0.53;;;;;;;11.87;61.10;98842.44;6142919;22;96911;-52
2023/03/14 11:33:15;;;;;;;1.23;0.50;;;;;;;11.56;61.25;98866.31;6142375;22;97121;-51
2023/03/14 11:36:04;;;;;;;0.60;0.40;;;;;;;11.35;61.22;98873.91;6142464;22;96888;-52